Time;durP1;ratioP1;P1;durP2;ratioP2;P2;SDS_P1;SDS_P2;PMS_P1;PMS_P2;Temp;Humidity;BMP_temperature;BMP_pressure;BME280_temperature;BME280_humidity;BME280_pressure;Samples;Min_cycle;Max_cycle;Signal;HPM_P1;HPM_P2
2022/01/22 00:00:23;;;;;;;12.23;7.10;;;;;;;;;;4449263;32;20337;-55
2022/01/22 00:02:50;;;;;;;16.93;7.73;;;;;;;;;;4449078;32;20247;-55
2022/01/22 00:05:16;;;;;;;15.17;7.30;;;;;;;;;;4448890;32;20204;-55
2022/01/22 00:07:42;;;;;;;14.17;6.43;;;;;;;;;;4440182;32;20956;-55
2022/01/22 00:10:14;;;;;;;14.90;7.30;;;;;;;;;;4434030;32;20284;-58
2022/01/22 00:15:12;;;;;;;14.43;7.77;;;;;;;;;;4419935;32;20194;-56
2022/01/22 00:17:38;;;;;;;18.20;7.87;;;;;;;;;;4434442;32;20286;-55
2022/01/22 00:20:04;;;;;;;18.53;7.73;;;;;;;;;;4434624;32;20315;-55
2022/01/22 00:22:33;;;;;;;11.43;6.27;;;;;;;;;;4448545;32;20315;-55
2022/01/22 00:25:00;;;;;;;8.33;5.40;;;;;;;;;;4435065;32;20304;-54
2022/01/22 00:27:27;;;;;;;7.40;5.00;;;;;;;;;;4448495;32;20548;-55
2022/01/22 00:29:52;;;;;;;13.70;5.50;;;;;;;;;;4448364;32;20238;-56
2022/01/22 00:32:18;;;;;;;16.70;5.27;;;;;;;;;;4434429;32;20727;-55
2022/01/22 00:34:44;;;;;;;10.20;6.50;;;;;;;;;;4448396;32;20551;-55
2022/01/22 00:37:10;;;;;;;16.47;8.03;;;;;;;;;;4448590;32;20746;-55
2022/01/22 00:39:36;;;;;;;25.40;11.57;;;;;;;;;;4434169;32;20668;-56
2022/01/22 00:42:15;;;;;;;28.70;14.07;;;;;;;;;;4448525;32;20295;-55
2022/01/22 00:44:42;;;;;;;47.43;18.73;;;;;;;;;;4448162;32;20317;-54
2022/01/22 00:47:09;;;;;;;41.10;17.73;;;;;;;;;;4448424;32;20562;-54
2022/01/22 00:49:36;;;;;;;31.10;13.30;;;;;;;;;;4448101;32;20312;-55
2022/01/22 00:52:04;;;;;;;31.77;15.43;;;;;;;;;;4448488;32;20741;-56
2022/01/22 00:54:30;;;;;;;29.57;15.13;;;;;;;;;;4434583;32;20700;-56
2022/01/22 00:56:55;;;;;;;49.43;18.23;;;;;;;;;;4448390;32;20283;-55
2022/01/22 00:59:21;;;;;;;40.73;18.37;;;;;;;;;;4447865;32;20291;-56
2022/01/22 01:01:46;;;;;;;29.10;13.47;;;;;;;;;;4448059;32;20279;-57
2022/01/22 01:04:12;;;;;;;35.70;15.00;;;;;;;;;;4448056;32;20228;-56
2022/01/22 01:06:38;;;;;;;30.30;14.97;;;;;;;;;;4445668;32;20261;-55
2022/01/22 01:09:07;;;;;;;31.47;13.50;;;;;;;;;;4432848;32;20216;-55
2022/01/22 01:11:36;;;;;;;27.27;14.20;;;;;;;;;;4432818;32;20668;-55
2022/01/22 01:14:04;;;;;;;25.77;12.20;;;;;;;;;;4432151;32;20331;-56
2022/01/22 01:32:56;;;;;;;29.47;13.30;;;;;;;;;;4447281;32;20611;-57
2022/01/22 01:35:23;;;;;;;27.17;12.37;;;;;;;;;;4447942;32;20207;-55
2022/01/22 01:37:50;;;;;;;30.10;12.83;;;;;;;;;;4447521;32;20590;-55
2022/01/22 01:40:19;;;;;;;30.30;13.40;;;;;;;;;;4447574;32;20577;-56
2022/01/22 01:42:58;;;;;;;43.07;17.80;;;;;;;;;;4447094;32;20403;-55
2022/01/22 01:45:23;;;;;;;39.73;15.33;;;;;;;;;;4434930;32;20632;-55
2022/01/22 01:47:58;;;;;;;35.73;15.73;;;;;;;;;;4447485;32;20262;-56
2022/01/22 01:50:24;;;;;;;50.33;16.77;;;;;;;;;;4447530;32;20300;-56
2022/01/22 01:53:07;;;;;;;41.40;15.17;;;;;;;;;;4447114;32;20286;-56
2022/01/22 01:55:46;;;;;;;40.23;15.70;;;;;;;;;;4447305;32;20222;-57
2022/01/22 01:58:12;;;;;;;43.17;19.10;;;;;;;;;;4447269;32;20258;-56
2022/01/22 02:00:38;;;;;;;55.13;23.20;;;;;;;;;;4447276;32;20663;-55
2022/01/22 02:03:03;;;;;;;37.90;19.27;;;;;;;;;;4447403;32;20224;-56
2022/01/22 02:05:31;;;;;;;40.97;19.20;;;;;;;;;;4432861;32;20299;-56
2022/01/22 02:07:56;;;;;;;23.30;11.73;;;;;;;;;;4422763;32;20275;-55
2022/01/22 02:10:26;;;;;;;29.37;13.37;;;;;;;;;;4431973;32;20574;-56
2022/01/22 02:23:44;;;;;;;20.07;11.10;;;;;;;;;;4446795;32;20282;-56
2022/01/22 02:26:11;;;;;;;30.77;13.17;;;;;;;;;;4432955;32;20228;-55
2022/01/22 02:28:37;;;;;;;17.40;9.03;;;;;;;;;;4447104;32;20267;-55
2022/01/22 02:33:56;;;;;;;14.83;7.57;;;;;;;;;;4449815;32;20249;-54
2022/01/22 02:36:29;;;;;;;16.00;8.33;;;;;;;;;;4450017;32;20302;-56
2022/01/22 02:41:25;;;;;;;16.70;10.77;;;;;;;;;;4449895;32;20592;-56
2022/01/22 02:43:53;;;;;;;15.57;9.20;;;;;;;;;;4449396;32;20255;-54
2022/01/22 02:46:22;;;;;;;18.37;10.53;;;;;;;;;;4436084;32;20606;-54
2022/01/22 02:48:48;;;;;;;18.17;9.37;;;;;;;;;;4449663;32;20295;-56
2022/01/22 02:51:14;;;;;;;22.90;9.90;;;;;;;;;;4449853;32;20398;-57
2022/01/22 02:53:39;;;;;;;15.17;7.47;;;;;;;;;;4449703;32;20220;-56
2022/01/22 02:56:05;;;;;;;28.67;9.67;;;;;;;;;;4435730;32;20734;-56
2022/01/22 02:58:31;;;;;;;18.10;8.90;;;;;;;;;;4449319;32;20436;-55
2022/01/22 03:00:57;;;;;;;20.53;8.80;;;;;;;;;;4449646;32;20322;-55
2022/01/22 03:03:23;;;;;;;16.07;8.33;;;;;;;;;;4449546;32;20243;-56
2022/01/22 03:05:48;;;;;;;15.77;9.20;;;;;;;;;;4435129;32;20315;-55
2022/01/22 03:08:15;;;;;;;22.07;11.83;;;;;;;;;;4437543;32;20611;-54
2022/01/22 03:10:44;;;;;;;20.03;11.10;;;;;;;;;;4433793;32;20287;-56
2022/01/22 03:13:25;;;;;;;28.27;13.70;;;;;;;;;;4419567;32;20268;-56
2022/01/22 03:16:05;;;;;;;26.80;14.10;;;;;;;;;;4433926;32;20209;-54
2022/01/22 03:18:47;;;;;;;34.27;13.47;;;;;;;;;;4428265;32;20219;-55
2022/01/22 03:21:29;;;;;;;30.77;12.73;;;;;;;;;;4449012;32;20205;-55
2022/01/22 03:29:32;;;;;;;18.13;9.70;;;;;;;;;;4433763;32;20312;-55
2022/01/22 03:31:58;;;;;;;34.40;14.87;;;;;;;;;;4433799;32;20197;-56
2022/01/22 03:34:24;;;;;;;26.90;12.43;;;;;;;;;;4433463;32;20569;-55
2022/01/22 03:36:49;;;;;;;29.70;14.07;;;;;;;;;;4433406;32;20313;-55
2022/01/22 03:39:15;;;;;;;31.27;15.43;;;;;;;;;;4419284;32;20317;-55
2022/01/22 03:41:41;;;;;;;34.23;15.27;;;;;;;;;;4432738;32;20496;-55
2022/01/22 03:44:08;;;;;;;36.60;19.07;;;;;;;;;;4433490;32;20507;-54
2022/01/22 03:46:36;;;;;;;47.80;22.10;;;;;;;;;;4433755;32;20192;-55
2022/01/22 03:49:04;;;;;;;53.97;23.07;;;;;;;;;;4433966;32;20415;-54
2022/01/22 03:51:30;;;;;;;45.80;21.97;;;;;;;;;;4420057;32;20271;-55
2022/01/22 03:53:56;;;;;;;57.77;20.90;;;;;;;;;;4433780;32;20325;-55
2022/01/22 03:56:24;;;;;;;35.37;16.97;;;;;;;;;;4433451;32;20263;-58
2022/01/22 03:58:50;;;;;;;51.43;24.97;;;;;;;;;;4433458;32;20312;-56
2022/01/22 04:04:00;;;;;;;59.67;29.40;;;;;;;;;;4435568;32;20267;-55
2022/01/22 04:08:57;;;;;;;62.33;29.20;;;;;;;;;;4432915;32;20225;-54
2022/01/22 04:11:23;;;;;;;55.93;25.80;;;;;;;;;;4418978;32;20233;-55
2022/01/22 04:13:51;;;;;;;37.30;20.37;;;;;;;;;;4432703;32;20352;-55
2022/01/22 04:16:17;;;;;;;45.70;20.93;;;;;;;;;;4418845;32;20683;-55
2022/01/22 04:27:00;;;;;;;20.33;10.83;;;;;;;;;;4434609;32;20704;-55
2022/01/22 04:29:27;;;;;;;24.07;13.40;;;;;;;;;;4448100;32;20383;-57
2022/01/22 04:31:53;;;;;;;28.37;13.33;;;;;;;;;;4448298;32;20205;-56
2022/01/22 04:34:19;;;;;;;20.67;9.33;;;;;;;;;;4448041;32;20613;-55
2022/01/22 04:36:45;;;;;;;14.83;8.53;;;;;;;;;;4448063;32;20305;-55
2022/01/22 04:39:11;;;;;;;20.47;9.40;;;;;;;;;;4434156;32;20224;-55
2022/01/22 04:41:37;;;;;;;24.23;12.20;;;;;;;;;;4447978;32;20719;-56
2022/01/22 04:44:04;;;;;;;22.67;11.57;;;;;;;;;;4433813;32;20277;-55
2022/01/22 04:46:56;;;;;;;11.57;6.00;;;;;;;;;;4433910;32;20221;-55
2022/01/22 04:57:21;;;;;;;11.17;6.80;;;;;;;;;;4447536;32;20412;-56
2022/01/22 04:59:47;;;;;;;10.03;4.97;;;;;;;;;;4447484;32;20291;-57
2022/01/22 05:02:13;;;;;;;8.97;5.57;;;;;;;;;;4447966;32;20295;-55
2022/01/22 05:04:38;;;;;;;6.07;3.23;;;;;;;;;;4433410;32;20320;-55
2022/01/22 05:07:04;;;;;;;6.17;5.03;;;;;;;;;;4428633;32;20289;-56
2022/01/22 05:09:30;;;;;;;18.23;7.77;;;;;;;;;;4417804;32;20289;-55
2022/01/22 05:11:56;;;;;;;13.87;7.27;;;;;;;;;;4431896;32;20235;-54
2022/01/22 05:14:23;;;;;;;22.30;9.47;;;;;;;;;;4431795;32;20245;-55
2022/01/22 05:16:49;;;;;;;27.27;13.07;;;;;;;;;;4417574;32;20282;-54
2022/01/22 05:19:23;;;;;;;37.70;16.90;;;;;;;;;;4429023;32;20228;-54
2022/01/22 05:21:51;;;;;;;40.20;21.20;;;;;;;;;;4447305;32;20243;-55
2022/01/22 05:24:21;;;;;;;43.90;23.40;;;;;;;;;;4447366;32;20544;-55
2022/01/22 05:37:25;;;;;;;53.80;23.80;;;;;;;;;;4431947;32;20338;-56
2022/01/22 05:39:51;;;;;;;43.67;20.40;;;;;;;;;;4417504;32;20338;-55
2022/01/22 05:42:16;;;;;;;39.47;19.40;;;;;;;;;;4431690;32;20371;-56
2022/01/22 05:44:42;;;;;;;48.63;21.67;;;;;;;;;;4431700;32;20273;-54
2022/01/22 05:47:07;;;;;;;54.30;26.73;;;;;;;;;;4431690;32;20298;-55
2022/01/22 05:49:38;;;;;;;52.23;24.30;;;;;;;;;;4417745;32;20295;-55
2022/01/22 05:52:06;;;;;;;58.17;21.97;;;;;;;;;;4417540;32;20355;-55
2022/01/22 05:59:42;;;;;;;43.23;20.70;;;;;;;;;;4431568;32;20364;-56
2022/01/22 06:02:10;;;;;;;50.77;23.90;;;;;;;;;;4431447;32;20716;-55
2022/01/22 06:04:36;;;;;;;40.00;18.63;;;;;;;;;;4424012;32;20228;-55
2022/01/22 06:07:04;;;;;;;46.13;20.17;;;;;;;;;;4443196;32;20294;-55
2022/01/22 06:09:32;;;;;;;49.47;27.03;;;;;;;;;;4431976;32;20687;-54
2022/01/22 06:12:14;;;;;;;47.00;21.50;;;;;;;;;;4431151;32;20270;-55
2022/01/22 06:14:39;;;;;;;38.63;20.67;;;;;;;;;;4446782;32;20197;-56
2022/01/22 06:17:05;;;;;;;47.73;27.00;;;;;;;;;;4447167;32;20310;-55
2022/01/22 06:19:30;;;;;;;65.40;33.70;;;;;;;;;;4419609;32;20375;-56
2022/01/22 06:21:56;;;;;;;69.63;33.30;;;;;;;;;;4431500;32;20653;-55
2022/01/22 06:24:22;;;;;;;70.53;35.73;;;;;;;;;;4431314;32;20252;-56
2022/01/22 06:26:48;;;;;;;87.77;43.57;;;;;;;;;;4440611;32;20742;-56
2022/01/22 06:29:14;;;;;;;78.13;41.03;;;;;;;;;;4431989;32;20220;-56
2022/01/22 06:31:39;;;;;;;89.23;45.33;;;;;;;;;;4431517;32;20629;-57
2022/01/22 06:34:06;;;;;;;107.10;50.40;;;;;;;;;;4416978;32;20334;-56
2022/01/22 06:36:32;;;;;;;107.73;51.17;;;;;;;;;;4431719;32;20304;-56
2022/01/22 06:39:10;;;;;;;110.73;57.37;;;;;;;;;;4430398;32;20651;-56
2022/01/22 06:41:45;;;;;;;88.30;46.17;;;;;;;;;;4418200;32;20244;-56
2022/01/22 06:44:15;;;;;;;103.93;56.33;;;;;;;;;;4419377;32;20315;-56
2022/01/22 06:46:44;;;;;;;85.70;39.33;;;;;;;;;;4417588;32;20332;-56
2022/01/22 06:49:10;;;;;;;60.27;30.40;;;;;;;;;;4431523;32;20382;-55
2022/01/22 06:51:35;;;;;;;63.73;36.07;;;;;;;;;;4417626;32;20330;-57
2022/01/22 06:54:03;;;;;;;93.77;43.17;;;;;;;;;;4431198;32;20311;-56
2022/01/22 06:56:30;;;;;;;74.37;43.07;;;;;;;;;;4430374;32;20256;-56
2022/01/22 06:58:57;;;;;;;74.00;35.90;;;;;;;;;;4431324;32;20617;-55
2022/01/22 07:01:23;;;;;;;66.87;33.20;;;;;;;;;;4431464;32;20290;-56
2022/01/22 07:03:49;;;;;;;62.63;34.90;;;;;;;;;;4433153;32;20213;-55
2022/01/22 07:06:15;;;;;;;60.10;31.33;;;;;;;;;;4446781;32;20295;-57
2022/01/22 07:08:40;;;;;;;64.10;29.50;;;;;;;;;;4434956;32;20286;-56
2022/01/22 07:11:06;;;;;;;70.40;36.03;;;;;;;;;;4429916;32;20327;-56
2022/01/22 07:13:32;;;;;;;61.77;27.43;;;;;;;;;;4443068;32;20703;-56
2022/01/22 07:15:57;;;;;;;52.80;27.43;;;;;;;;;;4431455;32;20315;-55
2022/01/22 07:18:23;;;;;;;32.93;21.73;;;;;;;;;;4442959;32;20212;-56
2022/01/22 07:20:51;;;;;;;37.37;21.70;;;;;;;;;;4432509;32;20376;-58
2022/01/22 07:26:00;;;;;;;37.33;23.33;;;;;;;;;;4437322;32;20216;-56
2022/01/22 07:28:26;;;;;;;50.20;21.00;;;;;;;;;;4446477;32;20216;-55
2022/01/22 07:30:52;;;;;;;59.27;25.50;;;;;;;;;;4449616;32;20279;-55
2022/01/22 07:33:20;;;;;;;37.47;22.30;;;;;;;;;;4449212;32;20287;-56
2022/01/22 07:35:45;;;;;;;39.93;24.20;;;;;;;;;;4434976;32;20388;-57
2022/01/22 07:38:11;;;;;;;41.63;22.17;;;;;;;;;;4435388;32;20307;-56
2022/01/22 07:40:37;;;;;;;42.77;22.50;;;;;;;;;;4435045;32;20295;-57
2022/01/22 07:43:02;;;;;;;39.20;21.13;;;;;;;;;;4449349;32;20267;-56
2022/01/22 07:45:28;;;;;;;48.57;24.10;;;;;;;;;;4435216;32;20360;-55
2022/01/22 07:47:53;;;;;;;45.23;23.87;;;;;;;;;;4448955;32;20256;-55
2022/01/22 07:50:19;;;;;;;77.83;30.87;;;;;;;;;;4435289;32;20239;-55
2022/01/22 07:52:45;;;;;;;80.03;42.77;;;;;;;;;;4448952;32;20727;-55
2022/01/22 07:55:11;;;;;;;47.43;22.67;;;;;;;;;;4449335;32;20288;-57
2022/01/22 07:57:36;;;;;;;62.63;30.10;;;;;;;;;;4448886;32;20314;-55
2022/01/22 08:00:06;;;;;;;60.70;29.67;;;;;;;;;;4449676;32;20338;-56
2022/01/22 08:02:32;;;;;;;60.77;25.70;;;;;;;;;;4435411;32;20329;-55
2022/01/22 08:04:57;;;;;;;70.43;31.03;;;;;;;;;;4444367;32;20725;-56
2022/01/22 08:07:23;;;;;;;70.87;30.73;;;;;;;;;;4440019;32;20220;-54
2022/01/22 08:09:50;;;;;;;83.93;42.70;;;;;;;;;;4448694;32;20303;-56
2022/01/22 08:12:16;;;;;;;51.73;27.90;;;;;;;;;;4448671;32;20475;-55
2022/01/22 08:14:42;;;;;;;57.03;30.30;;;;;;;;;;4433529;32;20300;-55
2022/01/22 08:17:07;;;;;;;66.70;33.90;;;;;;;;;;4433453;32;20896;-55
2022/01/22 08:19:33;;;;;;;56.97;27.87;;;;;;;;;;4433212;32;20572;-55
2022/01/22 08:21:58;;;;;;;53.97;24.57;;;;;;;;;;4433419;32;20296;-55
2022/01/22 08:24:26;;;;;;;38.00;23.03;;;;;;;;;;4433486;32;20865;-55
2022/01/22 08:27:09;;;;;;;44.63;22.50;;;;;;;;;;4441770;32;20287;-56
2022/01/22 08:29:35;;;;;;;68.13;30.33;;;;;;;;;;4433929;32;20634;-55
2022/01/22 08:37:13;;;;;;;125.50;50.43;;;;;;;;;;4433998;32;20235;-55
2022/01/22 08:39:39;;;;;;;117.70;50.17;;;;;;;;;;4433578;32;20598;-56
2022/01/22 08:42:06;;;;;;;76.50;35.83;;;;;;;;;;4433794;32;20287;-56
2022/01/22 08:44:32;;;;;;;86.27;39.70;;;;;;;;;;4419738;32;20326;-55
2022/01/22 08:46:57;;;;;;;65.00;31.20;;;;;;;;;;4419690;32;20311;-54
2022/01/22 08:49:24;;;;;;;59.43;31.87;;;;;;;;;;4419596;32;20245;-55
2022/01/22 08:51:49;;;;;;;72.30;34.90;;;;;;;;;;4432720;32;20218;-56
2022/01/22 08:54:15;;;;;;;47.37;25.60;;;;;;;;;;4434327;32;20672;-56
2022/01/22 08:56:41;;;;;;;57.87;32.73;;;;;;;;;;4434147;32;20322;-58
2022/01/22 08:59:08;;;;;;;55.93;29.83;;;;;;;;;;4433739;32;20468;-56
2022/01/22 09:01:34;;;;;;;65.47;30.57;;;;;;;;;;4440267;32;20220;-56
2022/01/22 09:03:59;;;;;;;80.00;42.00;;;;;;;;;;4449221;32;20728;-56
2022/01/22 09:06:25;;;;;;;94.53;45.43;;;;;;;;;;4449365;32;20811;-57
2022/01/22 09:08:53;;;;;;;85.17;42.50;;;;;;;;;;4434377;32;20352;-56
2022/01/22 09:11:19;;;;;;;77.60;40.13;;;;;;;;;;4420123;32;20263;-56
2022/01/22 09:13:45;;;;;;;77.73;41.13;;;;;;;;;;4433991;32;20240;-56
2022/01/22 09:16:10;;;;;;;60.63;31.37;;;;;;;;;;4434366;32;20687;-56
2022/01/22 09:18:36;;;;;;;60.03;35.10;;;;;;;;;;4440471;32;20323;-56
2022/01/22 09:21:04;;;;;;;50.30;26.50;;;;;;;;;;4434821;32;20688;-56
2022/01/22 09:23:31;;;;;;;45.83;24.83;;;;;;;;;;4434480;32;20229;-56
2022/01/22 09:25:57;;;;;;;67.63;28.47;;;;;;;;;;4448849;32;20207;-57
2022/01/22 09:28:23;;;;;;;62.63;31.77;;;;;;;;;;4448896;32;20305;-55
2022/01/22 09:30:48;;;;;;;30.77;17.77;;;;;;;;;;4448915;32;20279;-57
2022/01/22 09:33:15;;;;;;;37.50;19.83;;;;;;;;;;4449286;32;20263;-55
2022/01/22 09:35:40;;;;;;;33.00;18.17;;;;;;;;;;4449087;32;20223;-57
2022/01/22 09:38:06;;;;;;;43.77;22.10;;;;;;;;;;4432231;32;20240;-57
2022/01/22 09:40:32;;;;;;;48.17;25.33;;;;;;;;;;4433015;32;20220;-56
2022/01/22 09:42:59;;;;;;;38.77;18.67;;;;;;;;;;4433842;32;20257;-56
2022/01/22 09:45:27;;;;;;;33.30;18.07;;;;;;;;;;4432507;32;20224;-56
2022/01/22 09:47:53;;;;;;;35.93;20.63;;;;;;;;;;4432983;32;20251;-56
2022/01/22 09:50:23;;;;;;;56.43;27.10;;;;;;;;;;4433646;32;20712;-57
2022/01/22 09:52:49;;;;;;;45.07;22.90;;;;;;;;;;4432872;32;20600;-55
2022/01/22 09:55:15;;;;;;;40.93;23.13;;;;;;;;;;4418549;32;20247;-55
2022/01/22 09:57:42;;;;;;;41.60;22.53;;;;;;;;;;4432982;32;20509;-56
2022/01/22 10:00:09;;;;;;;33.73;19.20;;;;;;;;;;4433558;32;20276;-57
2022/01/22 10:02:47;;;;;;;41.93;20.53;;;;;;;;;;4433486;32;20236;-56
2022/01/22 10:05:32;;;;;;;41.87;21.00;;;;;;;;;;4444467;32;20200;-56
2022/01/22 10:08:19;;;;;;;42.67;22.30;;;;;;;;;;4438262;32;20733;-56
2022/01/22 10:10:45;;;;;;;54.80;29.67;;;;;;;;;;4432559;32;20209;-56
2022/01/22 10:13:11;;;;;;;52.13;25.27;;;;;;;;;;4435693;32;20408;-57
2022/01/22 10:15:38;;;;;;;42.67;22.87;;;;;;;;;;4422778;32;20743;-56
2022/01/22 10:18:03;;;;;;;56.87;30.20;;;;;;;;;;4421942;32;20229;-56
2022/01/22 10:20:36;;;;;;;49.60;27.30;;;;;;;;;;4448244;32;20584;-56
2022/01/22 10:23:05;;;;;;;57.70;26.87;;;;;;;;;;4439206;32;20324;-56
2022/01/22 10:25:36;;;;;;;38.73;21.23;;;;;;;;;;4438902;32;20254;-56
2022/01/22 10:28:13;;;;;;;44.23;23.03;;;;;;;;;;4444939;32;20718;-56
2022/01/22 10:30:42;;;;;;;34.93;19.83;;;;;;;;;;4448517;32;20220;-56
2022/01/22 10:33:30;;;;;;;26.73;15.33;;;;;;;;;;4433545;32;20243;-57
2022/01/22 10:36:20;;;;;;;16.27;8.20;;;;;;;;;;4445247;32;20263;-57
2022/01/22 10:38:50;;;;;;;14.17;8.07;;;;;;;;;;4440443;32;20576;-57
2022/01/22 10:41:19;;;;;;;26.33;15.37;;;;;;;;;;4423438;32;20259;-57
2022/01/22 10:43:55;;;;;;;11.37;6.93;;;;;;;;;;4431776;32;20358;-57
2022/01/22 10:49:19;;;;;;;13.23;6.70;;;;;;;;;;4430692;32;20259;-57
2022/01/22 10:51:59;;;;;;;10.83;6.17;;;;;;;;;;4433333;32;20356;-57
2022/01/22 10:54:29;;;;;;;7.23;5.20;;;;;;;;;;4434945;32;20228;-57
2022/01/22 10:57:16;;;;;;;12.17;7.43;;;;;;;;;;4435647;32;20216;-57
2022/01/22 10:59:49;;;;;;;25.13;13.47;;;;;;;;;;4421396;32;20402;-57
2022/01/22 11:02:19;;;;;;;57.97;31.97;;;;;;;;;;4421584;32;20317;-57
2022/01/22 11:04:45;;;;;;;11.30;6.47;;;;;;;;;;4428938;32;20242;-57
2022/01/22 11:07:19;;;;;;;10.50;5.23;;;;;;;;;;4431475;32;20905;-58
2022/01/22 11:09:46;;;;;;;9.50;6.23;;;;;;;;;;4421730;32;20495;-58
2022/01/22 11:12:12;;;;;;;8.83;5.10;;;;;;;;;;4408704;32;20300;-58
2022/01/22 11:14:39;;;;;;;21.73;8.27;;;;;;;;;;4421161;32;20309;-58
2022/01/22 11:17:06;;;;;;;11.43;6.43;;;;;;;;;;4435090;32;20584;-57
2022/01/22 11:19:34;;;;;;;8.03;5.33;;;;;;;;;;4447850;32;20629;-57
2022/01/22 11:22:11;;;;;;;17.00;7.97;;;;;;;;;;4450403;32;20296;-58
2022/01/22 11:24:40;;;;;;;10.13;5.43;;;;;;;;;;4436335;32;20256;-58
2022/01/22 11:27:08;;;;;;;9.63;4.97;;;;;;;;;;4450249;32;20235;-57
2022/01/22 11:29:43;;;;;;;13.83;6.50;;;;;;;;;;4450326;32;20193;-57
2022/01/22 11:32:13;;;;;;;14.90;8.30;;;;;;;;;;4450013;32;20652;-56
2022/01/22 11:34:42;;;;;;;12.03;7.27;;;;;;;;;;4449888;32;20572;-57
2022/01/22 11:37:26;;;;;;;16.97;8.00;;;;;;;;;;4450342;32;20196;-57
2022/01/22 11:40:11;;;;;;;23.57;11.00;;;;;;;;;;4436849;32;20814;-56
2022/01/22 11:43:09;;;;;;;13.43;9.27;;;;;;;;;;4435394;32;20252;-58
2022/01/22 11:45:41;;;;;;;15.23;8.60;;;;;;;;;;4430642;32;20221;-57
2022/01/22 11:48:17;;;;;;;16.50;9.40;;;;;;;;;;4450048;32;20774;-57
2022/01/22 11:50:48;;;;;;;18.00;8.33;;;;;;;;;;4450475;32;20193;-57
2022/01/22 11:53:34;;;;;;;14.87;9.63;;;;;;;;;;4450218;32;20224;-57
2022/01/22 11:56:09;;;;;;;16.40;9.27;;;;;;;;;;4435991;32;20233;-57
2022/01/22 11:59:03;;;;;;;16.40;9.60;;;;;;;;;;4449856;32;20235;-57
2022/01/22 12:01:40;;;;;;;20.47;9.17;;;;;;;;;;4420895;32;20246;-57
2022/01/22 12:04:08;;;;;;;21.20;11.20;;;;;;;;;;4449664;32;20333;-57
2022/01/22 12:06:36;;;;;;;27.10;13.03;;;;;;;;;;4448696;32;20588;-57
2022/01/22 12:09:26;;;;;;;26.77;11.93;;;;;;;;;;4435055;32;20311;-57
2022/01/22 12:14:47;;;;;;;11.77;5.73;;;;;;;;;;4434629;32;20236;-58
2022/01/22 12:17:18;;;;;;;12.83;7.07;;;;;;;;;;4420568;32;20322;-57
2022/01/22 12:20:02;;;;;;;17.63;7.23;;;;;;;;;;4448685;32;20220;-57
2022/01/22 12:22:31;;;;;;;10.63;6.63;;;;;;;;;;4449349;32;20565;-56
2022/01/22 12:25:00;;;;;;;15.60;6.77;;;;;;;;;;4449337;32;20830;-56
2022/01/22 12:27:48;;;;;;;10.87;6.17;;;;;;;;;;4435577;32;20228;-57
2022/01/22 12:30:15;;;;;;;10.00;5.20;;;;;;;;;;4435193;32;20565;-56
2022/01/22 12:32:49;;;;;;;5.77;4.07;;;;;;;;;;4449275;32;20318;-57
2022/01/22 12:35:48;;;;;;;12.87;4.17;;;;;;;;;;4435382;32;20300;-57
2022/01/22 12:38:34;;;;;;;8.97;4.90;;;;;;;;;;4434414;32;20698;-57
2022/01/22 12:41:28;;;;;;;20.60;10.83;;;;;;;;;;4449227;32;20192;-57
2022/01/22 12:44:13;;;;;;;13.17;7.73;;;;;;;;;;4435194;32;20280;-57
2022/01/22 12:46:39;;;;;;;14.60;4.70;;;;;;;;;;4434157;32;20671;-57
2022/01/22 12:49:06;;;;;;;15.80;7.90;;;;;;;;;;4419425;32;20240;-57
2022/01/22 12:51:33;;;;;;;20.90;9.30;;;;;;;;;;4434016;32;20209;-58
2022/01/22 12:53:59;;;;;;;15.00;7.00;;;;;;;;;;4433321;32;20712;-57
2022/01/22 12:56:49;;;;;;;11.67;6.37;;;;;;;;;;4419713;32;20356;-58
2022/01/22 12:59:12;;;;;;;9.03;4.27;;;;;;;;;;4432948;32;20324;-58
2022/01/22 13:01:43;;;;;;;16.70;7.53;;;;;;;;;;4433736;32;20298;-57
2022/01/22 13:04:09;;;;;;;7.80;4.53;;;;;;;;;;4437356;32;20693;-57
2022/01/22 13:06:47;;;;;;;19.30;8.20;;;;;;;;;;4447327;32;20279;-57
2022/01/22 13:09:14;;;;;;;12.73;6.37;;;;;;;;;;4433710;32;20220;-58
2022/01/22 13:11:48;;;;;;;13.03;4.67;;;;;;;;;;4433197;32;20323;-57
2022/01/22 13:14:15;;;;;;;8.67;4.70;;;;;;;;;;4433126;32;20255;-58
2022/01/22 13:16:49;;;;;;;15.57;6.53;;;;;;;;;;4433648;32;20193;-57
2022/01/22 13:19:15;;;;;;;9.83;6.20;;;;;;;;;;4444255;32;20287;-58
2022/01/22 13:21:49;;;;;;;28.23;8.20;;;;;;;;;;4447761;32;20204;-57
2022/01/22 13:24:15;;;;;;;15.33;8.43;;;;;;;;;;4432827;32;20323;-57
2022/01/22 13:27:00;;;;;;;17.07;7.23;;;;;;;;;;4436871;32;20325;-58
2022/01/22 13:29:34;;;;;;;10.27;6.37;;;;;;;;;;4418801;32;20304;-58
2022/01/22 13:32:18;;;;;;;15.20;8.97;;;;;;;;;;4418776;32;20253;-57
2022/01/22 13:34:55;;;;;;;5.83;3.93;;;;;;;;;;4433044;32;20205;-57
2022/01/22 13:47:56;;;;;;;9.37;5.93;;;;;;;;;;4407340;32;20233;-56
2022/01/22 13:50:22;;;;;;;14.00;4.63;;;;;;;;;;4432945;32;20279;-57
2022/01/22 13:52:49;;;;;;;7.80;5.10;;;;;;;;;;4432989;32;20572;-57
2022/01/22 13:55:15;;;;;;;9.60;5.30;;;;;;;;;;4432661;32;20254;-58
2022/01/22 13:57:44;;;;;;;14.60;8.10;;;;;;;;;;4424921;32;20829;-57
2022/01/22 14:00:20;;;;;;;14.50;7.40;;;;;;;;;;4432726;32;20234;-57
2022/01/22 14:05:31;;;;;;;10.17;6.17;;;;;;;;;;4445430;32;20640;-57
2022/01/22 14:08:00;;;;;;;18.37;8.47;;;;;;;;;;4437925;32;20333;-57
2022/01/22 14:10:27;;;;;;;11.20;5.63;;;;;;;;;;4432596;32;20327;-58
2022/01/22 14:13:00;;;;;;;10.57;5.80;;;;;;;;;;4432604;32;20246;-56
2022/01/22 14:15:38;;;;;;;12.93;7.40;;;;;;;;;;4431840;32;20286;-56
2022/01/22 14:20:42;;;;;;;10.27;7.23;;;;;;;;;;4447737;32;20232;-56
2022/01/22 14:23:19;;;;;;;14.10;6.10;;;;;;;;;;4446911;32;20324;-56
2022/01/22 14:26:03;;;;;;;12.77;6.27;;;;;;;;;;4436082;32;20228;-57
2022/01/22 14:28:48;;;;;;;10.50;5.97;;;;;;;;;;4436423;32;20256;-56
2022/01/22 14:32:01;;;;;;;13.90;5.97;;;;;;;;;;4455456;32;20279;-56
2022/01/22 14:34:34;;;;;;;11.30;6.40;;;;;;;;;;4464220;32;20259;-56
2022/01/22 14:37:02;;;;;;;6.37;4.27;;;;;;;;;;4466694;32;20201;-56
2022/01/22 14:43:59;;;;;;;13.73;4.33;;;;;;;;;;4451236;32;20299;-56
2022/01/22 14:45:12;;;;;;;21.10;9.00;;;;;;;;;;4450647;32;20242;-55
2022/01/22 14:47:37;;;;;;;10.47;6.10;;;;;;;;;;4450639;32;20797;-56
2022/01/22 14:50:07;;;;;;;10.47;5.33;;;;;;;;;;4450463;32;20240;-56
2022/01/22 14:52:32;;;;;;;9.57;4.93;;;;;;;;;;4450616;32;20236;-56
2022/01/22 14:55:00;;;;;;;19.17;7.10;;;;;;;;;;4450350;32;20676;-56
2022/01/22 14:57:29;;;;;;;27.70;10.37;;;;;;;;;;4450521;32;20295;-55
2022/01/22 14:59:55;;;;;;;20.90;8.63;;;;;;;;;;4450464;32;20220;-56
2022/01/22 15:02:20;;;;;;;16.57;5.63;;;;;;;;;;4436222;32;20358;-56
2022/01/22 15:04:46;;;;;;;10.93;4.67;;;;;;;;;;4450096;32;20282;-57
2022/01/22 15:07:15;;;;;;;13.37;7.47;;;;;;;;;;4445163;32;20727;-56
2022/01/22 15:09:44;;;;;;;12.30;5.93;;;;;;;;;;4434802;32;20329;-55
2022/01/22 15:12:10;;;;;;;10.43;4.67;;;;;;;;;;4420803;32;20280;-55
2022/01/22 15:14:38;;;;;;;10.30;5.77;;;;;;;;;;4420748;32;20258;-57
2022/01/22 15:19:35;;;;;;;10.20;4.17;;;;;;;;;;4447682;32;20645;-56
2022/01/22 15:22:00;;;;;;;14.50;6.03;;;;;;;;;;4447498;32;20293;-56
2022/01/22 15:24:26;;;;;;;15.90;8.93;;;;;;;;;;4445906;32;20655;-56
2022/01/22 15:26:52;;;;;;;35.30;16.37;;;;;;;;;;4449982;32;20314;-56
2022/01/22 15:29:25;;;;;;;13.00;7.20;;;;;;;;;;4449517;32;20312;-55
2022/01/22 15:32:19;;;;;;;18.80;9.53;;;;;;;;;;4441141;32;20257;-56
2022/01/22 15:34:43;;;;;;;24.63;10.77;;;;;;;;;;4433706;32;20256;-56
2022/01/22 15:37:09;;;;;;;13.83;6.80;;;;;;;;;;4419775;32;20236;-56
2022/01/22 15:39:35;;;;;;;14.93;8.43;;;;;;;;;;4434428;32;20255;-56
2022/01/22 15:42:02;;;;;;;12.77;5.30;;;;;;;;;;4434648;32;20212;-55
2022/01/22 15:44:28;;;;;;;6.20;4.40;;;;;;;;;;4420393;32;20246;-56
2022/01/22 15:46:54;;;;;;;12.43;7.50;;;;;;;;;;4433212;32;20735;-55
2022/01/22 15:49:22;;;;;;;5.47;4.33;;;;;;;;;;4420156;32;20329;-55
2022/01/22 15:51:56;;;;;;;12.50;6.07;;;;;;;;;;4420477;32;20986;-55
2022/01/22 15:54:23;;;;;;;10.33;5.13;;;;;;;;;;4433880;32;20726;-55
2022/01/22 15:56:51;;;;;;;10.27;5.63;;;;;;;;;;4434111;32;20272;-55
2022/01/22 15:59:17;;;;;;;10.23;5.00;;;;;;;;;;4434295;32;20259;-55
2022/01/22 16:01:44;;;;;;;9.63;4.70;;;;;;;;;;4434255;32;20584;-55
2022/01/22 16:04:10;;;;;;;5.90;3.70;;;;;;;;;;4420183;32;20240;-55
2022/01/22 16:07:20;;;;;;;13.30;7.07;;;;;;;;;;4435669;32;20312;-55
2022/01/22 16:09:29;;;;;;;12.77;4.77;;;;;;;;;;4441067;32;20241;-55
2022/01/22 16:11:55;;;;;;;14.33;5.60;;;;;;;;;;4435995;32;20274;-54
2022/01/22 16:14:21;;;;;;;8.37;4.77;;;;;;;;;;4435644;32;20319;-56
2022/01/22 16:16:49;;;;;;;12.20;4.37;;;;;;;;;;4449702;32;20749;-55
2022/01/22 16:19:15;;;;;;;8.10;5.10;;;;;;;;;;4438099;32;20625;-55
2022/01/22 16:21:42;;;;;;;9.27;5.37;;;;;;;;;;4434306;32;20221;-56
2022/01/22 16:24:12;;;;;;;7.93;4.60;;;;;;;;;;4419662;32;20248;-54
2022/01/22 16:26:39;;;;;;;10.57;5.90;;;;;;;;;;4439591;32;20283;-54
2022/01/22 16:29:05;;;;;;;21.43;9.93;;;;;;;;;;4449293;32;20228;-55